createdAt,value
2018-11-03T00:01:18.511Z,7.47
2018-11-03T00:03:47.737Z,7.92
2018-11-03T00:06:17.068Z,9.13
2018-11-03T00:08:46.404Z,7.40
2018-11-03T00:11:15.656Z,7.75
2018-11-03T00:13:45.069Z,9.00
2018-11-03T00:16:14.515Z,8.73
2018-11-03T00:18:43.897Z,8.45
2018-11-03T00:21:13.145Z,8.80
2018-11-03T00:23:42.484Z,9.50
2018-11-03T00:26:11.700Z,9.70
2018-11-03T00:28:40.930Z,10.25
2018-11-03T00:31:10.176Z,9.43
2018-11-03T00:33:39.444Z,9.40
2018-11-03T00:36:08.647Z,8.55
2018-11-03T00:38:38.793Z,9.38
2018-11-03T00:41:08.034Z,9.33
2018-11-03T00:43:37.290Z,9.75
2018-11-03T00:46:06.559Z,9.95
2018-11-03T00:48:35.905Z,10.10
2018-11-03T00:51:05.139Z,10.40
2018-11-03T00:53:34.381Z,10.20
2018-11-03T00:56:03.607Z,8.83
2018-11-03T00:58:32.843Z,10.35
2018-11-03T01:01:02.075Z,9.65
2018-11-03T01:03:31.307Z,9.83
2018-11-03T01:06:00.517Z,9.43
2018-11-03T01:08:29.745Z,10.08
2018-11-03T01:10:59.016Z,9.45
2018-11-03T01:13:28.232Z,10.28
2018-11-03T01:15:57.440Z,10.55
2018-11-03T01:18:26.742Z,10.43
2018-11-03T01:20:55.983Z,10.58
2018-11-03T01:23:25.296Z,11.65
2018-11-03T01:25:54.679Z,11.95
2018-11-03T01:28:23.931Z,10.72
2018-11-03T01:30:53.185Z,10.58
2018-11-03T01:33:22.391Z,10.65
2018-11-03T01:35:51.647Z,11.38
2018-11-03T01:38:20.855Z,10.75
2018-11-03T01:40:50.106Z,10.58
2018-11-03T01:43:19.331Z,10.93
2018-11-03T01:45:48.545Z,11.03
2018-11-03T01:48:17.770Z,11.43
2018-11-03T01:50:46.974Z,12.05
2018-11-03T01:53:16.202Z,14.20
2018-11-03T01:55:45.417Z,12.95
2018-11-03T01:58:14.639Z,12.03
2018-11-03T02:00:43.854Z,12.23
2018-11-03T02:03:13.142Z,13.93
2018-11-03T02:05:42.359Z,12.73
2018-11-03T02:08:11.673Z,14.73
2018-11-03T02:10:40.899Z,14.03
2018-11-03T02:13:10.170Z,14.40
2018-11-03T02:15:39.406Z,15.68
2018-11-03T02:18:08.605Z,14.15
2018-11-03T02:20:37.848Z,14.87
2018-11-03T02:23:07.053Z,15.15
2018-11-03T02:25:36.275Z,14.80
2018-11-03T02:28:06.026Z,15.93
2018-11-03T02:30:35.270Z,16.73
2018-11-03T02:33:04.618Z,15.25
2018-11-03T02:35:33.847Z,14.95
2018-11-03T02:38:03.175Z,15.30
2018-11-03T02:40:32.423Z,15.83
2018-11-03T02:43:01.697Z,16.25
2018-11-03T02:45:30.908Z,15.90
2018-11-03T02:48:00.336Z,16.25
2018-11-03T02:50:29.602Z,15.50
2018-11-03T02:52:58.846Z,18.02
2018-11-03T02:55:28.045Z,16.00
2018-11-03T02:57:57.276Z,17.62
2018-11-03T03:00:26.543Z,16.52
2018-11-03T03:02:55.759Z,17.35
2018-11-03T03:05:24.990Z,15.85
2018-11-03T03:07:54.242Z,18.25
2018-11-03T03:10:23.502Z,17.00
2018-11-03T03:12:52.691Z,18.75
2018-11-03T03:15:21.936Z,16.40
2018-11-03T03:17:51.173Z,16.10
2018-11-03T03:20:20.391Z,18.10
2018-11-03T03:22:49.711Z,19.12
2018-11-03T03:25:18.927Z,17.02
2018-11-03T03:27:48.144Z,18.55
2018-11-03T03:30:17.380Z,16.75
2018-11-03T03:32:46.595Z,18.05
2018-11-03T03:35:15.885Z,18.07
2018-11-03T03:37:45.114Z,18.17
2018-11-03T03:40:14.329Z,18.00
2018-11-03T03:42:43.577Z,17.05
2018-11-03T03:45:12.773Z,16.07
2018-11-03T03:47:42.019Z,18.67
2018-11-03T03:50:11.751Z,17.90
2018-11-03T03:52:40.972Z,17.05
2018-11-03T03:55:10.314Z,15.13
2018-11-03T03:57:39.554Z,18.12
2018-11-03T04:00:10.400Z,17.82
2018-11-03T04:02:40.030Z,17.60
2018-11-03T04:05:09.722Z,15.45
2018-11-03T04:07:39.453Z,17.10
2018-11-03T04:10:09.868Z,16.50
2018-11-03T04:12:39.382Z,16.70
2018-11-03T04:15:08.936Z,16.87
2018-11-03T04:17:38.324Z,17.87
2018-11-03T04:20:08.194Z,16.93
2018-11-03T04:22:37.426Z,16.93
2018-11-03T04:25:06.759Z,18.23
2018-11-03T04:27:36.010Z,17.95
2018-11-03T04:30:08.069Z,16.70
2018-11-03T04:32:37.475Z,17.65
2018-11-03T04:35:06.981Z,18.20
2018-11-03T04:37:36.389Z,17.87
2018-11-03T04:40:07.154Z,17.10
2018-11-03T04:42:36.397Z,17.02
2018-11-03T04:45:06.446Z,17.27
2018-11-03T04:47:35.820Z,16.90
2018-11-03T04:50:05.764Z,17.02
2018-11-03T04:52:35.006Z,17.02
2018-11-03T04:55:04.321Z,16.75
2018-11-03T04:57:33.670Z,18.90
2018-11-03T05:00:02.973Z,17.10
2018-11-03T05:02:32.182Z,17.57
2018-11-03T05:05:01.421Z,18.07
2018-11-03T05:07:30.646Z,16.93
2018-11-03T05:10:00.070Z,17.67
2018-11-03T05:12:29.277Z,19.30
2018-11-03T05:14:58.430Z,18.27
2018-11-03T05:17:27.628Z,17.85
2018-11-03T05:19:57.085Z,16.93
2018-11-03T05:22:26.388Z,17.57
2018-11-03T05:24:55.678Z,16.10
2018-11-03T05:27:24.959Z,17.15
2018-11-03T05:29:54.227Z,18.30
2018-11-03T05:32:23.422Z,16.87
2018-11-03T05:34:52.707Z,17.70
2018-11-03T05:37:21.948Z,16.95
2018-11-03T05:39:51.184Z,17.25
2018-11-03T05:42:20.403Z,17.55
2018-11-03T05:44:49.682Z,18.20
2018-11-03T05:47:18.939Z,17.30
2018-11-03T05:49:48.115Z,18.60
2018-11-03T05:52:17.484Z,16.10
2018-11-03T05:54:46.800Z,16.50
2018-11-03T05:57:16.041Z,16.48
2018-11-03T05:59:45.261Z,16.12
2018-11-03T06:02:14.480Z,16.82
2018-11-03T06:04:44.084Z,16.00
2018-11-03T06:07:13.307Z,16.48
2018-11-03T06:09:42.522Z,17.50
2018-11-03T06:12:11.765Z,16.77
2018-11-03T06:14:41.070Z,16.57
2018-11-03T06:17:10.326Z,15.83
2018-11-03T06:19:39.604Z,16.17
2018-11-03T06:22:08.890Z,16.17
2018-11-03T06:24:38.085Z,16.52
2018-11-03T06:27:07.275Z,17.48
2018-11-03T06:29:36.503Z,16.52
2018-11-03T06:32:06.196Z,16.20
2018-11-03T06:34:35.515Z,15.68
2018-11-03T06:37:04.894Z,15.55
2018-11-03T06:39:34.469Z,17.20
2018-11-03T06:42:03.704Z,16.35
2018-11-03T06:44:32.909Z,16.07
2018-11-03T06:47:02.196Z,15.23
2018-11-03T06:49:31.530Z,16.27
2018-11-03T06:52:00.822Z,15.43
2018-11-03T06:54:29.998Z,16.37
2018-11-03T06:56:59.244Z,14.15
2018-11-03T06:59:28.862Z,15.10
2018-11-03T07:01:58.118Z,16.65
2018-11-03T07:04:27.343Z,16.12
2018-11-03T07:06:56.630Z,14.98
2018-11-03T07:09:25.882Z,15.18
2018-11-03T07:11:55.094Z,15.65
2018-11-03T07:14:24.296Z,15.30
2018-11-03T07:16:53.551Z,15.90
2018-11-03T07:19:22.805Z,17.85
2018-11-03T07:21:52.157Z,21.30
2018-11-03T07:24:21.480Z,22.30
2018-11-03T07:26:50.699Z,17.98
2018-11-03T07:29:19.926Z,17.25
2018-11-03T07:31:49.197Z,15.58
2018-11-03T07:34:18.378Z,15.53
2018-11-03T07:36:47.570Z,15.18
2018-11-03T07:39:16.931Z,16.90
2018-11-03T07:41:46.267Z,15.72
2018-11-03T07:44:15.473Z,15.55
2018-11-03T07:46:44.854Z,14.35
2018-11-03T07:49:16.930Z,15.10
2018-11-03T07:51:47.403Z,14.75
2018-11-03T07:54:16.950Z,14.87
2018-11-03T07:56:46.191Z,15.45
2018-11-03T07:59:15.515Z,15.85
2018-11-03T08:01:44.827Z,15.00
2018-11-03T08:04:14.064Z,14.38
2018-11-03T08:06:43.284Z,14.10
2018-11-03T08:09:12.602Z,14.00
2018-11-03T08:11:41.738Z,13.93
2018-11-03T08:14:11.020Z,14.98
2018-11-03T08:16:40.243Z,14.07
2018-11-03T08:19:09.516Z,13.43
2018-11-03T08:21:38.806Z,12.60
2018-11-03T08:24:08.149Z,13.65
2018-11-03T08:26:37.375Z,13.70
2018-11-03T08:29:06.630Z,13.70
2018-11-03T08:31:35.892Z,13.93
2018-11-03T08:34:05.205Z,13.40
2018-11-03T08:36:34.445Z,12.58
2018-11-03T08:39:04.921Z,11.50
2018-11-03T08:41:34.186Z,12.70
2018-11-03T08:44:03.464Z,13.25
2018-11-03T08:46:32.769Z,12.40
2018-11-03T08:49:01.999Z,14.23
2018-11-03T08:51:31.260Z,15.00
2018-11-03T08:54:00.463Z,13.15
2018-11-03T08:56:29.960Z,12.03
2018-11-03T08:58:59.167Z,11.65
2018-11-03T09:01:28.415Z,12.63
2018-11-03T09:03:57.628Z,11.73
2018-11-03T09:06:26.866Z,13.10
2018-11-03T09:08:56.107Z,12.03
2018-11-03T09:11:25.366Z,11.25
2018-11-03T09:13:54.577Z,13.68
2018-11-03T09:16:23.975Z,12.20
2018-11-03T09:18:53.274Z,10.80
2018-11-03T09:21:22.536Z,11.15
2018-11-03T09:23:51.781Z,12.05
2018-11-03T09:26:21.118Z,12.90
2018-11-03T09:28:50.312Z,13.08
2018-11-03T09:31:19.546Z,12.58
2018-11-03T09:33:48.820Z,12.65
2018-11-03T09:36:18.056Z,11.78
2018-11-03T09:38:47.384Z,12.73
2018-11-03T09:41:16.577Z,11.83
2018-11-03T09:43:45.889Z,13.18
2018-11-03T09:46:15.111Z,11.35
2018-11-03T09:48:44.344Z,12.63
2018-11-03T09:51:13.589Z,11.97
2018-11-03T09:53:42.828Z,12.23
2018-11-03T09:56:12.062Z,13.28
2018-11-03T09:58:41.306Z,12.28
2018-11-03T10:01:10.522Z,12.47
2018-11-03T10:03:40.625Z,10.88
2018-11-03T10:06:09.952Z,11.22
2018-11-03T10:08:39.196Z,12.47
2018-11-03T10:11:08.425Z,11.53
2018-11-03T10:13:37.820Z,11.88
2018-11-03T10:16:07.182Z,11.90
2018-11-03T10:18:36.443Z,12.95
2018-11-03T10:21:06.210Z,12.75
2018-11-03T10:23:35.685Z,12.65
2018-11-03T10:26:05.494Z,12.07
2018-11-03T10:28:34.750Z,12.35
2018-11-03T10:31:04.028Z,12.00
2018-11-03T10:33:33.341Z,11.05
2018-11-03T10:36:02.506Z,11.30
2018-11-03T10:38:31.752Z,11.50
2018-11-03T10:41:01.042Z,10.80
2018-11-03T10:43:30.283Z,9.90
2018-11-03T10:45:59.502Z,10.53
2018-11-03T10:48:28.770Z,11.88
2018-11-03T10:50:58.046Z,10.23
2018-11-03T10:53:27.356Z,10.58
2018-11-03T10:55:56.548Z,10.40
2018-11-03T10:58:25.911Z,10.00
2018-11-03T11:01:00.517Z,10.13
2018-11-03T11:03:35.104Z,10.10
2018-11-03T11:07:13.619Z,10.43
2018-11-03T11:09:48.022Z,10.35
2018-11-03T11:12:22.657Z,10.88
2018-11-03T11:14:52.017Z,10.15
2018-11-03T11:17:21.300Z,10.93
2018-11-03T11:19:50.567Z,10.85
2018-11-03T11:22:19.866Z,10.65
2018-11-03T11:24:49.195Z,11.75
2018-11-03T11:27:18.375Z,12.13
2018-11-03T11:29:47.611Z,11.75
2018-11-03T11:32:16.922Z,12.78
2018-11-03T11:34:46.211Z,13.13
2018-11-03T11:37:15.448Z,11.22
2018-11-03T11:39:44.713Z,11.60
2018-11-03T11:42:13.980Z,10.68
2018-11-03T11:44:43.197Z,11.33
2018-11-03T11:47:13.187Z,12.07
2018-11-03T11:49:42.487Z,12.37
2018-11-03T11:52:11.730Z,11.10
2018-11-03T11:54:41.055Z,12.00
2018-11-03T11:57:10.234Z,10.58
2018-11-03T11:59:39.504Z,10.47
2018-11-03T12:02:08.787Z,9.43
2018-11-03T12:04:38.039Z,10.57
2018-11-03T12:07:07.299Z,10.27
2018-11-03T12:09:36.477Z,10.87
2018-11-03T12:12:05.752Z,11.80
2018-11-03T12:14:34.974Z,11.13
2018-11-03T12:17:04.235Z,10.70
2018-11-03T12:19:33.541Z,11.80
2018-11-03T12:22:02.778Z,10.60
2018-11-03T12:24:32.067Z,10.27
2018-11-03T12:27:01.330Z,9.33
2018-11-03T12:29:30.583Z,11.57
2018-11-03T12:31:59.847Z,10.73
2018-11-03T12:34:29.092Z,11.97
2018-11-03T12:36:58.371Z,11.77
2018-11-03T12:39:27.598Z,10.67
2018-11-03T12:41:56.938Z,10.68
2018-11-03T12:44:26.179Z,11.70
2018-11-03T12:46:55.426Z,10.90
2018-11-03T12:49:24.691Z,11.83
2018-11-03T12:51:53.924Z,13.60
2018-11-03T12:54:23.209Z,10.80
2018-11-03T12:56:52.443Z,11.12
2018-11-03T12:59:21.765Z,11.20
2018-11-03T13:01:51.013Z,11.83
2018-11-03T13:04:23.146Z,12.70
2018-11-03T13:06:52.567Z,11.87
2018-11-03T13:09:21.846Z,12.07
2018-11-03T13:11:51.015Z,9.57
2018-11-03T13:14:20.249Z,10.93
2018-11-03T13:16:49.578Z,11.12
2018-11-03T13:19:18.865Z,12.60
2018-11-03T13:21:48.141Z,11.57
2018-11-03T13:24:17.390Z,10.78
2018-11-03T13:26:46.666Z,10.60
2018-11-03T13:29:16.011Z,11.03
2018-11-03T13:31:45.293Z,10.43
2018-11-03T13:34:14.517Z,11.25
2018-11-03T13:36:43.815Z,12.40
2018-11-03T13:39:13.067Z,12.10
2018-11-03T13:41:42.307Z,12.35
2018-11-03T13:44:11.566Z,12.20
2018-11-03T13:46:40.810Z,10.25
2018-11-03T13:49:10.066Z,11.60
2018-11-03T13:51:39.345Z,10.10
2018-11-03T13:54:08.599Z,10.65
2018-11-03T13:56:37.888Z,11.70
2018-11-03T13:59:09.042Z,11.30
2018-11-03T14:01:38.364Z,11.63
2018-11-03T14:04:07.673Z,11.40
2018-11-03T14:06:36.930Z,11.15
2018-11-03T14:09:07.819Z,11.53
2018-11-03T14:11:37.057Z,11.10
2018-11-03T14:14:06.507Z,10.65
2018-11-03T14:16:36.003Z,11.00
2018-11-03T14:19:05.562Z,11.00
2018-11-03T14:21:34.829Z,12.30
2018-11-03T14:24:04.091Z,11.15
2018-11-03T14:26:33.360Z,10.50
2018-11-03T14:29:02.757Z,10.75
2018-11-03T14:31:31.915Z,11.57
2018-11-03T14:34:01.171Z,10.68
2018-11-03T14:36:30.450Z,11.88
2018-11-03T14:38:59.675Z,9.75
2018-11-03T14:41:28.951Z,10.20
2018-11-03T14:43:58.170Z,11.00
2018-11-03T14:46:27.399Z,10.40
2018-11-03T14:48:56.658Z,9.23
2018-11-03T14:51:25.864Z,9.48
2018-11-03T14:53:55.151Z,10.90
2018-11-03T14:56:24.438Z,8.63
2018-11-03T14:58:53.635Z,9.28
2018-11-03T15:01:22.863Z,10.08
2018-11-03T15:03:52.116Z,9.18
2018-11-03T15:06:21.356Z,9.00
2018-11-03T15:08:50.635Z,9.48
2018-11-03T15:11:19.861Z,9.03
2018-11-03T15:13:49.335Z,19.67
2018-11-03T15:16:18.422Z,11.08
2018-11-03T15:18:47.655Z,9.97
2018-11-03T15:21:16.967Z,9.85
2018-11-03T15:23:46.153Z,8.13
2018-11-03T15:26:15.407Z,9.40
2018-11-03T15:28:44.674Z,10.27
2018-11-03T15:31:13.963Z,9.40
2018-11-03T15:33:43.327Z,8.90
2018-11-03T15:36:12.586Z,9.00
2018-11-03T15:38:41.865Z,10.05
2018-11-03T15:41:11.134Z,11.30
2018-11-03T15:43:40.365Z,10.27
2018-11-03T15:46:09.606Z,9.75
2018-11-03T15:48:38.863Z,10.50
2018-11-03T15:51:08.118Z,10.60
2018-11-03T15:53:37.358Z,9.80
2018-11-03T15:56:06.583Z,8.55
2018-11-03T15:58:35.818Z,8.93
2018-11-03T16:01:05.059Z,9.35
2018-11-03T16:03:34.280Z,10.00
2018-11-03T16:06:03.728Z,9.70
2018-11-03T16:08:33.056Z,9.08
2018-11-03T16:11:02.316Z,9.63
2018-11-03T16:13:31.938Z,11.12
2018-11-03T16:16:01.199Z,9.45
2018-11-03T16:18:30.485Z,9.47
2018-11-03T16:20:59.756Z,10.45
2018-11-03T16:23:29.216Z,11.73
2018-11-03T16:25:58.518Z,11.35
2018-11-03T16:28:27.765Z,10.18
2018-11-03T16:30:56.939Z,11.28
2018-11-03T16:33:26.187Z,10.88
2018-11-03T16:35:55.424Z,10.15
2018-11-03T16:38:24.723Z,10.45
2018-11-03T16:40:53.943Z,10.43
2018-11-03T16:43:23.177Z,9.90
2018-11-03T16:45:52.546Z,10.13
2018-11-03T16:48:21.727Z,10.25
2018-11-03T16:50:51.112Z,9.65
2018-11-03T16:53:20.303Z,10.00
2018-11-03T16:55:49.555Z,9.03
2018-11-03T16:58:18.803Z,10.78
2018-11-03T17:00:48.206Z,11.25
2018-11-03T17:03:17.561Z,10.82
2018-11-03T17:05:46.796Z,10.72
2018-11-03T17:08:16.059Z,9.60
2018-11-03T17:10:45.314Z,11.33
2018-11-03T17:13:14.571Z,12.78
2018-11-03T17:15:43.829Z,11.73
2018-11-03T17:18:13.063Z,11.30
2018-11-03T17:20:45.455Z,11.90
2018-11-03T17:23:14.746Z,11.88
2018-11-03T17:25:43.959Z,11.63
2018-11-03T17:28:13.186Z,12.13
2018-11-03T17:30:42.511Z,11.33
2018-11-03T17:33:11.814Z,11.90
2018-11-03T17:35:41.056Z,12.50
2018-11-03T17:38:10.309Z,12.18
2018-11-03T17:40:39.622Z,11.60
2018-11-03T17:43:09.416Z,11.33
2018-11-03T17:45:38.674Z,12.30
2018-11-03T17:48:07.964Z,11.30
2018-11-03T17:50:37.248Z,12.47
2018-11-03T17:53:06.653Z,11.40
2018-11-03T17:55:35.951Z,12.10
2018-11-03T17:58:05.693Z,12.13
2018-11-03T18:00:35.011Z,11.83
2018-11-03T18:03:04.540Z,11.38
2018-11-03T18:05:33.862Z,11.68
2018-11-03T18:08:03.138Z,13.08
2018-11-03T18:10:32.504Z,12.40
2018-11-03T18:13:01.779Z,11.03
2018-11-03T18:15:31.023Z,12.03
2018-11-03T18:18:00.318Z,11.60
2018-11-03T18:20:29.571Z,11.18
2018-11-03T18:22:58.951Z,11.85
2018-11-03T18:25:28.197Z,11.40
2018-11-03T18:27:57.512Z,10.32
2018-11-03T18:30:26.815Z,11.95
2018-11-03T18:32:57.103Z,11.12
2018-11-03T18:35:26.344Z,10.18
2018-11-03T18:37:55.691Z,12.88
2018-11-03T18:40:24.884Z,12.43
2018-11-03T18:42:54.217Z,11.78
2018-11-03T18:45:23.526Z,11.15
2018-11-03T18:47:52.811Z,11.28
2018-11-03T18:50:22.118Z,11.00
2018-11-03T18:52:51.404Z,13.65
2018-11-03T18:55:20.610Z,13.68
2018-11-03T18:57:49.979Z,12.20
2018-11-03T19:00:19.307Z,14.53
2018-11-03T19:02:48.570Z,13.40
2018-11-03T19:05:17.815Z,12.98
2018-11-03T19:07:47.095Z,14.20
2018-11-03T19:10:16.354Z,12.50
2018-11-03T19:12:45.604Z,14.38
2018-11-03T19:15:14.950Z,11.63
2018-11-03T19:17:44.325Z,11.45
2018-11-03T19:20:14.713Z,11.68
2018-11-03T19:22:44.147Z,12.45
2018-11-03T19:25:14.323Z,12.23
2018-11-03T19:27:43.632Z,12.05
2018-11-03T19:30:13.888Z,12.88
2018-11-03T19:32:44.395Z,12.07
2018-11-03T19:35:13.791Z,12.40
2018-11-03T19:37:43.186Z,12.50
2018-11-03T19:40:13.953Z,13.00
2018-11-03T19:42:43.999Z,11.57
2018-11-03T19:45:13.409Z,13.90
2018-11-03T19:47:42.669Z,10.58
2018-11-03T19:50:11.955Z,12.70
2018-11-03T19:52:41.308Z,11.53
2018-11-03T19:55:10.590Z,11.90
2018-11-03T19:57:39.837Z,12.80
2018-11-03T20:00:12.820Z,13.60
2018-11-03T20:02:42.257Z,11.75
2018-11-03T20:05:11.941Z,12.37
2018-11-03T20:07:42.450Z,12.23
2018-11-03T20:10:12.223Z,13.43
2018-11-03T20:12:41.620Z,12.00
2018-11-03T20:15:12.058Z,10.63
2018-11-03T20:17:41.462Z,12.63
2018-11-03T20:20:13.003Z,11.55
2018-11-03T20:22:42.396Z,11.70
2018-11-03T20:25:12.456Z,11.50
2018-11-03T20:27:41.703Z,11.93
2018-11-03T20:30:13.923Z,10.93
2018-11-03T20:32:43.706Z,12.63
2018-11-03T20:35:13.122Z,11.35
2018-11-03T20:37:42.509Z,12.05
2018-11-03T20:40:13.061Z,12.15
2018-11-03T20:42:42.328Z,11.85
2018-11-03T20:45:11.594Z,12.03
2018-11-03T20:47:40.838Z,11.70
2018-11-03T20:50:12.387Z,11.95
2018-11-03T20:52:41.742Z,11.97
2018-11-03T20:55:12.019Z,12.03
2018-11-03T20:57:41.957Z,12.95
2018-11-03T21:00:13.307Z,11.88
2018-11-03T21:02:42.722Z,11.78
2018-11-03T21:05:12.373Z,13.08
2018-11-03T21:07:42.575Z,12.28
2018-11-03T21:10:11.931Z,11.70
2018-11-03T21:12:41.201Z,11.60
2018-11-03T21:15:10.505Z,11.10
2018-11-03T21:17:39.779Z,12.30
2018-11-03T21:20:09.461Z,10.72
2018-11-03T21:22:38.924Z,10.93
2018-11-03T21:25:08.235Z,11.78
2018-11-03T21:27:37.558Z,10.78
2018-11-03T21:30:08.170Z,12.20
2018-11-03T21:32:37.543Z,13.00
2018-11-03T21:35:07.116Z,13.10
2018-11-03T21:37:36.710Z,14.43
2018-11-03T21:40:06.798Z,11.40
2018-11-03T21:42:36.023Z,12.40
2018-11-03T21:45:06.071Z,12.50
2018-11-03T21:47:35.320Z,14.20
2018-11-03T21:50:05.024Z,13.45
2018-11-03T21:52:34.263Z,13.83
2018-11-03T21:55:03.676Z,16.07
2018-11-03T21:57:32.931Z,13.90
2018-11-03T22:00:02.245Z,13.47
2018-11-03T22:02:31.596Z,14.40
2018-11-03T22:05:00.852Z,12.30
2018-11-03T22:07:30.130Z,14.98
2018-11-03T22:09:59.376Z,13.65
2018-11-03T22:12:28.646Z,12.93
2018-11-03T22:14:57.961Z,13.85
2018-11-03T22:17:27.315Z,13.32
2018-11-03T22:19:56.541Z,14.40
2018-11-03T22:22:25.881Z,13.90
2018-11-03T22:24:55.118Z,15.10
2018-11-03T22:27:24.368Z,14.50
2018-11-03T22:29:53.641Z,14.30
2018-11-03T22:32:22.867Z,14.95
2018-11-03T22:34:52.127Z,13.83
2018-11-03T22:37:21.627Z,14.03
2018-11-03T22:39:50.922Z,14.28
2018-11-03T22:42:20.215Z,13.80
2018-11-03T22:44:49.479Z,14.80
2018-11-03T22:47:18.867Z,14.85
2018-11-03T22:49:48.087Z,12.60
2018-11-03T22:52:17.420Z,15.23
2018-11-03T22:54:46.773Z,15.35
2018-11-03T22:57:16.190Z,14.55
2018-11-03T22:59:45.391Z,14.80
2018-11-03T23:02:14.625Z,15.90
2018-11-03T23:04:43.830Z,16.45
2018-11-03T23:07:13.127Z,14.38
2018-11-03T23:09:42.364Z,14.15
2018-11-03T23:12:11.611Z,16.42
2018-11-03T23:14:41.242Z,15.63
2018-11-03T23:17:10.518Z,16.87
2018-11-03T23:19:39.938Z,16.07
2018-11-03T23:22:09.414Z,15.85
2018-11-03T23:24:38.708Z,14.43
2018-11-03T23:27:08.055Z,16.35
2018-11-03T23:29:37.420Z,15.53
2018-11-03T23:32:06.618Z,15.70
2018-11-03T23:34:35.869Z,15.78
2018-11-03T23:37:05.431Z,17.48
2018-11-03T23:39:34.704Z,15.30
2018-11-03T23:42:04.022Z,15.13
2018-11-03T23:44:33.362Z,15.10
2018-11-03T23:47:02.629Z,13.48
2018-11-03T23:49:31.937Z,14.35
2018-11-03T23:52:01.161Z,14.70
2018-11-03T23:54:30.413Z,14.53
2018-11-03T23:56:59.646Z,13.43
2018-11-03T23:59:28.996Z,15.70
